Time;durP1;ratioP1;P1;durP2;ratioP2;P2;SDS_P1;SDS_P2;PMS_P1;PMS_P2;Temp;Humidity;BMP_temperature;BMP_pressure;BME280_temperature;BME280_humidity;BME280_pressure;Samples;Min_cycle;Max_cycle;Signal;HPM_P1;HPM_P2
2023/08/24 00:01:20;;;;;;;8.02;4.70;;;;;;;28.60;42.32;98893.25;4826827;29;20200;-88
2023/08/24 00:03:47;;;;;;;8.73;5.13;;;;;;;28.56;42.47;98891.97;4842167;29;20178;-89
2023/08/24 00:06:14;;;;;;;8.70;4.47;;;;;;;28.55;42.65;98890.34;4842436;29;20666;-89
2023/08/24 00:08:41;;;;;;;8.50;4.53;;;;;;;28.51;42.58;98891.75;4842394;29;20169;-89
2023/08/24 00:11:07;;;;;;;8.85;4.13;;;;;;;28.43;42.82;98888.41;4826408;29;20192;-89
2023/08/24 00:13:34;;;;;;;9.65;5.22;;;;;;;28.37;42.79;98881.13;4842117;29;20187;-89
2023/08/24 00:16:01;;;;;;;8.57;4.93;;;;;;;28.36;42.46;98884.84;4841991;29;20324;-89
2023/08/24 00:18:28;;;;;;;10.70;5.00;;;;;;;28.36;42.56;98872.19;4826422;29;20292;-88
2023/08/24 00:20:54;;;;;;;8.02;4.38;;;;;;;28.38;42.68;98872.81;4825993;29;20185;-89
2023/08/24 00:23:21;;;;;;;7.95;4.97;;;;;;;28.32;42.15;98873.63;4825935;29;20177;-89
2023/08/24 00:25:47;;;;;;;8.25;4.35;;;;;;;28.26;42.48;98877.13;4845042;29;20181;-89
2023/08/24 00:28:14;;;;;;;7.25;5.03;;;;;;;28.19;42.24;98873.56;4845364;29;20173;-88
2023/08/24 00:30:41;;;;;;;6.15;4.38;;;;;;;28.14;43.01;98870.66;4845820;29;20576;-89
2023/08/24 00:33:08;;;;;;;8.07;4.90;;;;;;;28.13;43.28;98874.34;4829243;29;20189;-89
2023/08/24 00:35:35;;;;;;;9.50;4.70;;;;;;;28.13;43.04;98882.44;4845544;29;20574;-89
2023/08/24 00:38:00;;;;;;;8.15;5.35;;;;;;;28.12;43.15;98888.03;4845122;29;20189;-89
2023/08/24 00:40:27;;;;;;;6.60;4.40;;;;;;;28.09;42.87;98880.34;4828917;29;20690;-89
2023/08/24 00:42:53;;;;;;;10.20;5.15;;;;;;;28.05;42.63;98882.59;4845035;29;20319;-89
2023/08/24 00:45:19;;;;;;;8.18;4.82;;;;;;;28.01;43.07;98881.31;4845049;29;20613;-89
2023/08/24 00:47:47;;;;;;;12.10;5.35;;;;;;;27.99;42.78;98883.34;4845305;29;20651;-89
2023/08/24 00:50:13;;;;;;;11.68;5.20;;;;;;;28.02;42.72;98883.00;4845083;29;20591;-88
2023/08/24 00:52:41;;;;;;;8.15;5.03;;;;;;;28.16;42.11;98890.13;4828713;29;20311;-88
2023/08/24 00:55:08;;;;;;;7.78;4.95;;;;;;;28.10;42.58;98893.63;4845278;29;20200;-88
2023/08/24 00:57:37;;;;;;;11.52;5.55;;;;;;;27.95;42.59;98896.41;4828635;29;20200;-89
2023/08/24 01:00:05;;;;;;;8.23;5.03;;;;;;;27.88;43.13;98900.09;4844828;29;20216;-89
2023/08/24 01:02:32;;;;;;;10.13;4.88;;;;;;;27.78;43.75;98896.88;4828383;29;20201;-89
2023/08/24 01:05:04;;;;;;;8.63;4.70;;;;;;;27.74;43.79;98904.53;4844803;29;20272;-89
2023/08/24 01:07:33;;;;;;;14.05;5.40;;;;;;;27.69;43.37;98889.97;4829286;29;20264;-89
2023/08/24 01:10:00;;;;;;;10.40;4.90;;;;;;;27.66;43.41;98891.22;4828645;29;20264;-89
2023/08/24 01:12:39;;;;;;;8.18;4.40;;;;;;;27.65;43.68;98888.69;4844885;29;20181;-89
2023/08/24 01:15:22;;;;;;;10.35;4.93;;;;;;;27.69;42.95;98889.97;4828407;29;20177;-89
2023/08/24 01:17:50;;;;;;;8.07;4.57;;;;;;;27.70;43.05;98894.34;4829162;29;20177;-89
2023/08/24 01:20:18;;;;;;;12.50;4.72;;;;;;;27.68;42.90;98891.84;4828258;29;20698;-89
2023/08/24 01:23:21;;;;;;;9.55;4.43;;;;;;;27.68;42.89;98891.00;4844510;29;20264;-89
2023/08/24 01:26:17;;;;;;;6.60;4.25;;;;;;;27.63;43.20;98882.66;4844968;29;20181;-89
2023/08/24 01:28:44;;;;;;;9.23;5.32;;;;;;;27.58;43.48;98885.13;4826443;29;20189;-89
2023/08/24 01:31:14;;;;;;;8.38;4.53;;;;;;;27.56;43.98;98884.50;4844220;29;20181;-89
2023/08/24 01:33:41;;;;;;;7.95;4.95;;;;;;;27.56;43.65;98889.88;4827878;29;20632;-89
2023/08/24 01:36:10;;;;;;;7.07;4.35;;;;;;;27.54;43.79;98878.47;4844343;29;20181;-89
2023/08/24 01:38:38;;;;;;;7.47;4.88;;;;;;;27.51;44.11;98885.09;4844186;29;20194;-89
2023/08/24 01:41:20;;;;;;;8.05;4.20;;;;;;;27.46;44.08;98879.44;4828146;29;20211;-89
2023/08/24 01:43:52;;;;;;;7.57;4.32;;;;;;;27.46;44.18;98875.91;4844722;29;20552;-89
2023/08/24 01:46:21;;;;;;;8.77;4.50;;;;;;;27.44;44.14;98874.25;4827843;29;20224;-89
2023/08/24 01:48:49;;;;;;;8.40;4.53;;;;;;;27.42;44.41;98870.06;4844255;29;20209;-89
2023/08/24 01:51:16;;;;;;;10.00;4.60;;;;;;;27.33;44.72;98860.47;4827823;29;20200;-89
2023/08/24 01:53:43;;;;;;;8.25;4.68;;;;;;;27.32;44.50;98858.78;4843900;29;20192;-89
2023/08/24 01:56:15;;;;;;;10.32;4.85;;;;;;;27.31;44.86;98867.88;4827813;29;20257;-89
2023/08/24 01:58:42;;;;;;;9.02;5.43;;;;;;;27.31;44.30;98867.88;4827643;29;20572;-89
2023/08/24 02:01:12;;;;;;;8.82;4.45;;;;;;;27.19;44.64;98858.66;4828354;29;20181;-89
2023/08/24 02:03:39;;;;;;;8.50;4.97;;;;;;;27.08;45.13;98860.00;4827609;29;20555;-89
2023/08/24 02:06:06;;;;;;;12.23;5.28;;;;;;;27.07;44.25;98860.22;4843978;29;20546;-89
2023/08/24 02:08:33;;;;;;;13.93;4.85;;;;;;;27.05;44.51;98856.84;4828451;29;20177;-89
2023/08/24 02:11:00;;;;;;;9.00;5.30;;;;;;;26.99;44.29;98858.44;4843512;29;20181;-89
2023/08/24 02:13:25;;;;;;;8.18;5.20;;;;;;;26.89;44.63;98871.38;4843815;29;20185;-89
2023/08/24 02:16:01;;;;;;;13.32;4.93;;;;;;;26.83;44.27;98854.16;4843797;29;20539;-89
2023/08/24 02:18:28;;;;;;;8.30;4.88;;;;;;;26.80;44.16;98857.25;4827149;29;20189;-89
2023/08/24 02:20:53;;;;;;;8.43;4.93;;;;;;;26.79;44.17;98860.09;4843391;29;20184;-89
2023/08/24 02:23:19;;;;;;;11.27;5.10;;;;;;;26.81;44.25;98858.88;4843592;29;20549;-89
2023/08/24 02:25:44;;;;;;;8.40;4.97;;;;;;;26.81;44.29;98871.50;4827332;29;20648;-89
2023/08/24 02:28:10;;;;;;;10.07;5.13;;;;;;;26.83;44.15;98870.28;4843358;29;20181;-89
2023/08/24 02:30:39;;;;;;;8.07;4.97;;;;;;;26.74;44.21;98870.56;4827271;29;20268;-89
2023/08/24 02:33:05;;;;;;;8.30;4.88;;;;;;;26.62;44.53;98866.72;4827304;29;20180;-89
2023/08/24 02:35:31;;;;;;;7.63;4.72;;;;;;;26.56;44.65;98856.72;4843179;29;20182;-89
2023/08/24 02:37:57;;;;;;;8.20;4.47;;;;;;;26.50;44.78;98865.50;4843102;29;20679;-89
2023/08/24 02:40:24;;;;;;;7.40;4.67;;;;;;;26.39;44.78;98866.03;4826983;29;20216;-89
2023/08/24 02:42:50;;;;;;;8.03;5.13;;;;;;;26.35;45.06;98859.34;4827190;29;20244;-89
2023/08/24 02:45:17;;;;;;;8.87;4.83;;;;;;;26.31;45.11;98860.75;4826878;29;20740;-89
2023/08/24 02:47:44;;;;;;;9.20;4.53;;;;;;;26.30;45.32;98864.44;4842450;29;20181;-89
2023/08/24 02:50:11;;;;;;;6.97;4.33;;;;;;;26.27;45.66;98867.50;4826971;29;20584;-89
2023/08/24 02:52:37;;;;;;;10.10;4.80;;;;;;;26.26;45.28;98865.84;4842918;29;20640;-89
2023/08/24 02:55:03;;;;;;;7.60;4.73;;;;;;;26.19;45.41;98861.22;4843417;29;20241;-89
2023/08/24 02:57:29;;;;;;;7.53;4.67;;;;;;;26.16;45.33;98864.25;4843166;29;20185;-88
2023/08/24 02:59:56;;;;;;;7.87;4.73;;;;;;;26.09;45.05;98863.31;4842716;29;20209;-89
2023/08/24 03:02:23;;;;;;;8.80;4.53;;;;;;;26.04;45.49;98863.03;4843412;29;20177;-89
2023/08/24 03:04:49;;;;;;;7.90;4.43;;;;;;;26.01;45.87;98862.56;4842832;29;20256;-89
2023/08/24 03:07:16;;;;;;;7.03;4.43;;;;;;;25.88;46.62;98857.84;4843073;29;20253;-89
2023/08/24 03:09:42;;;;;;;8.33;4.77;;;;;;;25.88;46.08;98868.59;4836384;29;20242;-89
2023/08/24 03:12:09;;;;;;;6.93;4.70;;;;;;;25.89;45.64;98864.88;4843206;29;20196;-89
2023/08/24 03:14:36;;;;;;;9.70;5.10;;;;;;;25.89;46.21;98858.69;4842730;29;20173;-89
2023/08/24 03:17:04;;;;;;;9.30;5.13;;;;;;;25.84;46.37;98866.47;4842569;29;20169;-89
2023/08/24 03:19:30;;;;;;;8.10;4.37;;;;;;;25.82;46.02;98868.47;4842617;29;20201;-89
2023/08/24 03:21:57;;;;;;;9.60;4.63;;;;;;;25.77;46.35;98871.72;4842673;29;20173;-88
2023/08/24 03:24:24;;;;;;;8.27;4.43;;;;;;;25.69;46.40;98879.00;4842790;29;20185;-89
2023/08/24 03:26:51;;;;;;;7.90;4.90;;;;;;;25.68;46.30;98875.50;4842519;29;20260;-89
2023/08/24 03:29:17;;;;;;;6.93;4.10;;;;;;;25.68;46.59;98875.50;4826828;29;20173;-89
2023/08/24 03:31:43;;;;;;;8.20;4.60;;;;;;;25.71;46.57;98880.50;4842820;29;20192;-88
2023/08/24 03:34:09;;;;;;;7.80;5.13;;;;;;;25.67;46.85;98887.25;4842754;29;20185;-89
2023/08/24 03:36:35;;;;;;;7.13;4.43;;;;;;;25.64;46.86;98882.25;4842398;29;20201;-89
2023/08/24 03:39:01;;;;;;;12.40;5.13;;;;;;;25.70;46.71;98886.91;4842555;29;20357;-89
2023/08/24 03:41:27;;;;;;;8.73;4.47;;;;;;;25.72;46.91;98884.84;4826214;29;20686;-88
2023/08/24 03:43:52;;;;;;;10.40;4.23;;;;;;;25.75;46.45;98876.44;4826608;29;20177;-89
2023/08/24 03:46:17;;;;;;;7.37;4.37;;;;;;;25.74;46.44;98882.81;4826652;29;20181;-89
2023/08/24 03:48:43;;;;;;;9.03;4.63;;;;;;;25.71;46.25;98882.38;4826280;29;20189;-89
2023/08/24 03:51:08;;;;;;;7.17;4.57;;;;;;;25.68;46.81;98894.31;4826227;29;20208;-88
2023/08/24 03:53:34;;;;;;;6.63;4.13;;;;;;;25.68;46.58;98899.69;4826090;29;20195;-89
2023/08/24 03:56:00;;;;;;;7.10;4.13;;;;;;;25.64;46.46;98904.56;4842616;29;20181;-89
2023/08/24 03:58:27;;;;;;;8.73;4.33;;;;;;;25.51;46.75;98900.81;4842110;29;20187;-89
2023/08/24 04:00:55;;;;;;;11.90;5.30;;;;;;;25.54;46.58;98901.31;4845838;29;20624;-89
2023/08/24 04:03:21;;;;;;;9.53;5.07;;;;;;;25.64;46.81;98904.56;4830331;29;20703;-88
2023/08/24 04:05:48;;;;;;;6.93;3.80;;;;;;;25.66;46.67;98904.38;4829478;29;20177;-88
2023/08/24 04:08:13;;;;;;;9.93;4.53;;;;;;;25.68;46.99;98899.69;4845772;29;20264;-89
2023/08/24 04:10:40;;;;;;;9.63;4.83;;;;;;;25.71;46.54;98901.97;4845765;29;20703;-89
2023/08/24 04:13:06;;;;;;;7.97;4.50;;;;;;;25.70;46.62;98897.63;4845697;29;20192;-89
2023/08/24 04:15:33;;;;;;;8.47;3.97;;;;;;;25.63;47.48;98897.50;4829298;29;20273;-89
2023/08/24 04:18:00;;;;;;;7.03;3.90;;;;;;;25.73;47.27;98897.28;4845641;29;20182;-89
2023/08/24 04:20:25;;;;;;;8.67;4.47;;;;;;;25.86;46.73;98893.97;4829193;29;20237;-89
2023/08/24 04:22:52;;;;;;;7.27;3.77;;;;;;;25.97;46.48;98905.06;4845690;29;20232;-89
2023/08/24 04:25:19;;;;;;;11.07;4.30;;;;;;;26.05;46.85;98901.47;4845515;29;20192;-88
2023/08/24 04:27:46;;;;;;;6.70;4.00;;;;;;;26.05;46.46;98914.88;4845723;29;20184;-89
2023/08/24 04:30:12;;;;;;;9.57;4.17;;;;;;;26.03;47.30;98904.34;4845183;29;20181;-89
2023/08/24 04:32:37;;;;;;;7.27;4.43;;;;;;;26.07;46.68;98902.13;4845603;29;20557;-89
2023/08/24 04:35:03;;;;;;;7.10;4.10;;;;;;;26.13;47.39;98909.47;4845378;29;20739;-89
2023/08/24 04:37:29;;;;;;;9.37;4.10;;;;;;;26.20;47.38;98905.84;4845512;29;20695;-89
2023/08/24 04:39:56;;;;;;;7.87;4.00;;;;;;;26.38;46.80;98896.59;4845165;29;20216;-89
2023/08/24 04:42:21;;;;;;;6.67;4.03;;;;;;;26.59;46.28;98902.03;4845235;29;20189;-89
2023/08/24 04:44:47;;;;;;;6.57;3.70;;;;;;;26.83;45.64;98902.56;4845144;29;20737;-89
2023/08/24 04:47:12;;;;;;;5.97;4.17;;;;;;;27.07;44.78;98906.75;4845094;29;20196;-89
2023/08/24 04:49:38;;;;;;;8.98;4.20;;;;;;;27.23;44.67;98898.44;4844935;29;20183;-89
2023/08/24 04:52:04;;;;;;;13.63;4.38;;;;;;;27.43;44.23;98909.44;4828685;29;20181;-89
2023/08/24 04:54:30;;;;;;;7.43;4.30;;;;;;;27.59;43.86;98901.09;4844964;29;20187;-89
2023/08/24 04:56:55;;;;;;;7.47;4.38;;;;;;;27.78;43.43;98902.25;4828680;29;20594;-89
2023/08/24 04:59:21;;;;;;;6.55;4.05;;;;;;;27.97;42.92;98907.81;4828587;29;20257;-89
2023/08/24 05:01:47;;;;;;;8.32;3.88;;;;;;;28.12;43.24;98905.03;4844774;29;20609;-89
2023/08/24 05:04:14;;;;;;;6.93;4.40;;;;;;;28.32;42.74;98910.53;4845240;29;20184;-89
2023/08/24 05:06:41;;;;;;;7.72;4.50;;;;;;;28.50;42.40;98906.28;4844570;29;20261;-88
2023/08/24 05:09:08;;;;;;;8.82;4.10;;;;;;;28.70;42.95;98898.31;4828558;29;20672;-89
2023/08/24 05:11:34;;;;;;;14.57;4.53;;;;;;;28.92;42.63;98904.41;4828655;29;20181;-90
2023/08/24 05:14:01;;;;;;;9.80;4.72;;;;;;;29.03;42.73;98904.66;4845177;29;20193;-89
2023/08/24 05:16:27;;;;;;;8.77;4.28;;;;;;;29.08;43.11;98902.19;4845175;29;20177;-89
2023/08/24 05:18:54;;;;;;;10.82;4.18;;;;;;;29.09;44.17;98898.41;4844469;29;20209;-89
2023/08/24 05:21:20;;;;;;;11.20;4.70;;;;;;;29.17;43.13;98895.53;4828282;29;20177;-89
2023/08/24 05:23:45;;;;;;;6.95;4.07;;;;;;;29.33;42.28;98905.16;4844434;29;20241;-89
2023/08/24 05:26:11;;;;;;;6.47;4.03;;;;;;;29.43;41.91;98902.88;4844713;29;20176;-89
2023/08/24 05:28:36;;;;;;;7.45;4.38;;;;;;;29.56;40.46;98908.28;4844367;29;20647;-88
2023/08/24 05:31:03;;;;;;;12.23;4.93;;;;;;;29.50;40.98;98906.44;4844158;29;20230;-88
2023/08/24 05:33:30;;;;;;;8.93;4.88;;;;;;;29.62;40.64;98907.47;4828361;29;20185;-89
2023/08/24 05:35:58;;;;;;;9.35;5.45;;;;;;;29.86;40.33;98916.00;4828833;29;20181;-88
2023/08/24 05:38:25;;;;;;;10.57;5.15;;;;;;;29.88;39.78;98905.81;4827735;29;20185;-88
2023/08/24 05:40:51;;;;;;;7.60;5.22;;;;;;;29.91;40.30;98914.34;4827948;29;20189;-87
2023/08/24 05:43:17;;;;;;;8.38;4.95;;;;;;;30.04;39.88;98913.50;4828076;29;20208;-88
2023/08/24 05:45:46;;;;;;;8.50;5.03;;;;;;;30.07;39.80;98908.50;4844250;29;20692;-88
2023/08/24 05:48:13;;;;;;;14.88;5.32;;;;;;;30.07;39.92;98919.31;4827790;29;20189;-88
2023/08/24 05:50:44;;;;;;;7.72;5.15;;;;;;;30.15;39.81;98907.44;4844230;29;20193;-88
2023/08/24 05:53:10;;;;;;;9.80;5.18;;;;;;;30.29;39.24;98906.38;4844168;29;20580;-88
2023/08/24 05:55:38;;;;;;;11.32;4.97;;;;;;;30.40;39.54;98909.28;4843810;29;20182;-88
2023/08/24 05:58:05;;;;;;;9.48;4.60;;;;;;;30.50;39.70;98902.59;4844094;29;20185;-88
2023/08/24 06:00:31;;;;;;;8.05;4.57;;;;;;;30.38;39.97;98905.97;4843843;29;20296;-88
2023/08/24 06:02:58;;;;;;;7.63;4.60;;;;;;;30.49;39.78;98901.78;4843714;29;20239;-88
2023/08/24 06:05:26;;;;;;;8.05;5.25;;;;;;;30.52;39.20;98904.06;4843672;29;20640;-88
2023/08/24 06:07:52;;;;;;;8.88;4.63;;;;;;;30.66;38.60;98902.94;4843618;29;20205;-88
2023/08/24 06:10:19;;;;;;;8.20;4.55;;;;;;;30.67;39.09;98903.78;4843330;29;20189;-88
2023/08/24 06:12:45;;;;;;;9.25;4.85;;;;;;;30.92;38.93;98897.44;4843598;29;20603;-88
2023/08/24 06:15:13;;;;;;;8.00;4.78;;;;;;;31.15;38.31;98901.47;4827287;29;20177;-88
2023/08/24 06:17:39;;;;;;;9.63;5.15;;;;;;;31.21;37.99;98904.13;4843304;29;20185;-88
2023/08/24 06:20:06;;;;;;;8.70;4.63;;;;;;;31.44;38.01;98900.88;4828328;29;20201;-88
2023/08/24 06:22:32;;;;;;;11.30;5.00;;;;;;;31.63;37.13;98899.91;4842596;29;20189;-88
2023/08/24 06:25:00;;;;;;;6.38;4.43;;;;;;;31.79;36.94;98904.78;4827227;29;20243;-88
2023/08/24 06:27:26;;;;;;;7.13;4.60;;;;;;;31.99;35.83;98910.91;4843834;29;20331;-88
2023/08/24 06:29:53;;;;;;;8.10;4.63;;;;;;;32.15;36.52;98913.00;4843038;29;20266;-88
2023/08/24 06:32:19;;;;;;;9.65;5.05;;;;;;;32.47;35.62;98899.34;4843633;29;20185;-88
2023/08/24 06:34:46;;;;;;;9.60;4.60;;;;;;;32.81;35.02;98904.13;4827957;29;20192;-87
2023/08/24 06:37:13;;;;;;;8.35;5.30;;;;;;;33.00;33.65;98907.66;4843170;29;20185;-88
2023/08/24 06:39:38;;;;;;;8.45;5.15;;;;;;;33.01;33.71;98902.00;4842951;29;20197;-88
2023/08/24 06:42:05;;;;;;;7.78;4.65;;;;;;;33.04;33.41;98900.72;4827439;29;20235;-88
2023/08/24 06:44:32;;;;;;;8.15;5.13;;;;;;;33.15;34.37;98905.41;4827931;29;20193;-88
2023/08/24 06:46:59;;;;;;;7.45;4.50;;;;;;;33.47;34.01;98898.63;4827042;29;20265;-88
2023/08/24 06:49:25;;;;;;;9.77;4.38;;;;;;;33.78;33.95;98911.94;4843239;29;20240;-89
2023/08/24 06:51:51;;;;;;;11.10;4.50;;;;;;;34.13;32.82;98916.59;4826745;29;20303;-88
2023/08/24 06:54:18;;;;;;;9.45;4.75;;;;;;;34.24;32.33;98919.34;4843192;29;20181;-88
2023/08/24 06:56:44;;;;;;;8.20;4.80;;;;;;;34.38;32.38;98915.28;4826823;29;20188;-88
2023/08/24 06:59:13;;;;;;;9.80;5.13;;;;;;;34.17;32.28;98921.34;4842638;29;20244;-88
2023/08/24 07:01:40;;;;;;;9.95;4.10;;;;;;;34.23;32.62;98923.09;4826809;29;20294;-88
2023/08/24 07:04:07;;;;;;;10.13;4.97;;;;;;;34.40;32.89;98924.06;4826729;29;20185;-88
2023/08/24 07:06:35;;;;;;;6.47;4.28;;;;;;;34.72;32.46;98912.78;4843007;29;20644;-88
2023/08/24 07:09:06;;;;;;;8.68;5.05;;;;;;;34.97;31.41;98921.44;4826521;29;20266;-88
2023/08/24 07:11:33;;;;;;;9.07;5.25;;;;;;;35.08;31.91;98913.25;4827746;29;20189;-88
2023/08/24 07:14:00;;;;;;;8.98;4.70;;;;;;;35.06;30.63;98911.84;4827006;29;20317;-90
2023/08/24 07:16:25;;;;;;;7.75;4.72;;;;;;;35.07;31.07;98910.75;4826643;29;20257;-87
2023/08/24 07:18:51;;;;;;;13.82;4.78;;;;;;;35.17;31.50;98905.50;4826747;29;20618;-87
2023/08/24 07:21:17;;;;;;;6.85;5.00;;;;;;;35.09;30.57;98914.91;4842774;29;20189;-88
2023/08/24 07:23:44;;;;;;;7.50;5.35;;;;;;;35.32;30.40;98913.16;4826680;29;20257;-88
2023/08/24 07:26:12;;;;;;;11.07;4.93;;;;;;;35.38;30.18;98915.69;4842534;29;20197;-86
2023/08/24 07:28:39;;;;;;;8.68;5.40;;;;;;;35.46;30.23;98917.19;4842485;29;20193;-88
2023/08/24 07:31:12;;;;;;;7.35;4.80;;;;;;;35.56;30.04;98909.25;4842445;29;20177;-89
2023/08/24 07:33:42;;;;;;;8.07;5.28;;;;;;;35.61;29.80;98912.06;4828278;29;20183;-88
2023/08/24 07:36:08;;;;;;;9.75;5.65;;;;;;;35.80;29.94;98907.19;4846320;29;20675;-88
2023/08/24 07:38:34;;;;;;;7.45;5.07;;;;;;;36.07;29.85;98900.00;4846042;29;20205;-88
2023/08/24 07:40:59;;;;;;;12.68;5.60;;;;;;;36.33;29.47;98911.03;4827886;29;20265;-87
2023/08/24 07:43:26;;;;;;;9.45;5.45;;;;;;;36.55;28.65;98908.34;4827750;29;20570;-89
2023/08/24 07:45:52;;;;;;;9.18;5.68;;;;;;;36.71;27.95;98902.00;4827723;29;20178;-88
2023/08/24 07:48:18;;;;;;;8.38;4.90;;;;;;;36.73;28.78;98902.56;4841518;29;20248;-87
2023/08/24 07:50:45;;;;;;;7.10;4.75;;;;;;;36.90;29.26;98900.56;4846029;29;20188;-87
2023/08/24 07:53:12;;;;;;;8.23;4.85;;;;;;;37.21;28.90;98906.41;4845984;29;20209;-87
2023/08/24 07:55:39;;;;;;;8.60;5.28;;;;;;;37.32;28.31;98899.94;4829661;29;20595;-88
2023/08/24 07:58:04;;;;;;;7.60;5.40;;;;;;;37.59;28.33;98903.53;4829603;29;20272;-88
2023/08/24 08:00:31;;;;;;;7.32;4.78;;;;;;;37.75;27.25;98908.03;4812827;29;20235;-88
2023/08/24 08:02:58;;;;;;;9.82;5.32;;;;;;;37.76;27.77;98911.59;4827616;29;20181;-87
2023/08/24 08:05:24;;;;;;;11.90;5.68;;;;;;;37.85;27.76;98912.75;4826461;29;20268;-87
2023/08/24 08:07:50;;;;;;;7.68;5.38;;;;;;;37.89;27.96;98912.03;4827313;29;20269;-87
2023/08/24 08:10:17;;;;;;;9.05;5.78;;;;;;;38.02;27.18;98914.31;4836123;29;20186;-88
2023/08/24 08:12:43;;;;;;;6.88;4.88;;;;;;;38.18;27.64;98915.22;4827271;29;20589;-87
2023/08/24 08:15:09;;;;;;;7.63;5.28;;;;;;;38.21;26.31;98911.13;4827206;29;20685;-88
2023/08/24 08:17:36;;;;;;;6.63;5.20;;;;;;;38.31;27.35;98911.22;4811476;29;20182;-88
2023/08/24 08:20:03;;;;;;;6.60;4.30;;;;;;;38.42;27.92;98907.47;4811882;29;20206;-88
2023/08/24 08:22:30;;;;;;;7.55;4.68;;;;;;;38.48;27.58;98903.63;4826156;29;20193;-87
2023/08/24 08:24:56;;;;;;;10.10;4.95;;;;;;;38.52;27.22;98902.03;4829354;29;20184;-87
2023/08/24 08:27:22;;;;;;;6.53;4.72;;;;;;;38.70;26.55;98893.34;4829411;29;20171;-87
2023/08/24 08:29:50;;;;;;;7.82;5.47;;;;;;;38.77;26.83;98898.56;4845343;29;20598;-87
2023/08/24 08:32:16;;;;;;;9.48;5.03;;;;;;;38.75;26.31;98896.13;4845492;29;20268;-87
2023/08/24 08:34:43;;;;;;;9.32;5.13;;;;;;;38.79;26.76;98891.75;4829032;29;20210;-87
2023/08/24 08:37:10;;;;;;;7.22;5.25;;;;;;;38.94;26.99;98894.56;4845684;29;20192;-87
2023/08/24 08:39:37;;;;;;;7.85;5.20;;;;;;;39.04;26.54;98883.59;4828851;29;20547;-87
2023/08/24 08:42:02;;;;;;;6.07;4.53;;;;;;;39.08;25.99;98884.69;4845421;29;20193;-87
2023/08/24 08:44:32;;;;;;;10.63;4.68;;;;;;;39.12;25.32;98872.09;4828214;29;20189;-90
2023/08/24 08:46:57;;;;;;;7.82;4.35;;;;;;;39.02;25.96;98884.97;4844926;29;20214;-87
2023/08/24 08:49:23;;;;;;;9.30;4.05;;;;;;;39.01;25.44;98884.13;4845027;29;20174;-88
2023/08/24 08:51:50;;;;;;;6.78;4.22;;;;;;;39.00;25.97;98893.44;4844967;29;20260;-88
2023/08/24 08:54:16;;;;;;;8.55;4.78;;;;;;;38.72;26.69;98880.19;4828815;29;20201;-87
2023/08/24 08:56:44;;;;;;;8.00;4.70;;;;;;;38.60;26.52;98871.38;4844946;29;20245;-87
2023/08/24 08:59:14;;;;;;;7.35;4.53;;;;;;;38.62;26.18;98880.16;4845275;29;20285;-86
2023/08/24 09:01:41;;;;;;;9.90;4.35;;;;;;;38.89;27.00;98875.31;4828583;29;20236;-87
2023/08/24 09:04:08;;;;;;;7.60;4.40;;;;;;;39.19;25.71;98869.13;4828796;29;20279;-87
2023/08/24 09:06:35;;;;;;;7.75;5.38;;;;;;;39.19;26.42;98869.13;4828486;29;20192;-87
2023/08/24 09:09:04;;;;;;;8.23;5.13;;;;;;;39.42;25.44;98860.34;4829273;29;20212;-87
2023/08/24 09:11:33;;;;;;;6.53;4.63;;;;;;;39.61;24.82;98869.69;4828406;29;20193;-88
2023/08/24 09:13:58;;;;;;;7.00;4.75;;;;;;;39.45;25.02;98861.72;4828387;29;20181;-87
2023/08/24 09:16:29;;;;;;;5.82;4.03;;;;;;;39.67;25.26;98867.81;4828645;29;20192;-87
2023/08/24 09:18:55;;;;;;;8.05;4.38;;;;;;;39.66;24.42;98855.16;4845065;29;20660;-87
2023/08/24 09:21:20;;;;;;;8.57;4.22;;;;;;;39.82;23.76;98851.31;4844470;29;20196;-87
2023/08/24 09:23:54;;;;;;;6.82;4.32;;;;;;;39.84;24.26;98854.59;4828209;29;20189;-88
2023/08/24 09:26:31;;;;;;;7.72;4.40;;;;;;;39.99;24.11;98849.09;4844577;29;20192;-87
2023/08/24 09:28:59;;;;;;;6.63;4.38;;;;;;;39.89;24.55;98849.09;4834402;29;20659;-87
2023/08/24 09:31:37;;;;;;;5.57;3.75;;;;;;;40.25;25.02;98850.72;4826136;29;20621;-87
2023/08/24 09:34:03;;;;;;;6.95;3.75;;;;;;;40.13;23.82;98838.38;4825052;29;20178;-87
2023/08/24 09:36:34;;;;;;;5.97;3.92;;;;;;;40.41;23.06;98833.03;4818442;29;20556;-88
2023/08/24 09:39:04;;;;;;;6.18;3.78;;;;;;;40.40;24.31;98836.09;4825588;29;20209;-87
2023/08/24 09:41:39;;;;;;;4.70;3.05;;;;;;;40.38;23.96;98828.13;4837125;29;20190;-87
2023/08/24 09:44:11;;;;;;;5.85;3.70;;;;;;;40.56;23.76;98834.13;4809878;29;20288;-87
2023/08/24 09:46:38;;;;;;;5.10;3.20;;;;;;;40.64;23.72;98830.78;4833910;29;20272;-87
2023/08/24 09:49:07;;;;;;;5.38;3.58;;;;;;;40.56;23.98;98825.88;4834415;29;20219;-87
2023/08/24 09:51:34;;;;;;;6.47;3.80;;;;;;;40.56;23.61;98815.72;4816965;29;20194;-87
2023/08/24 09:54:06;;;;;;;5.85;3.42;;;;;;;40.89;23.66;98825.16;4840632;29;20193;-87
2023/08/24 09:56:34;;;;;;;7.53;3.33;;;;;;;40.95;23.56;98807.53;4842618;29;20569;-87
2023/08/24 09:59:03;;;;;;;6.00;3.60;;;;;;;41.10;23.73;98807.41;4827140;29;20217;-87
2023/08/24 10:01:31;;;;;;;8.95;4.30;;;;;;;41.34;23.29;98805.59;4843570;29;20259;-87
2023/08/24 10:03:59;;;;;;;5.65;4.03;;;;;;;41.49;23.63;98810.97;4827371;29;20602;-87
2023/08/24 10:06:29;;;;;;;5.50;4.13;;;;;;;41.57;22.04;98807.59;4827072;29;20513;-87
2023/08/24 10:09:01;;;;;;;5.60;3.83;;;;;;;41.62;22.58;98801.22;4825595;29;20178;-88
2023/08/24 10:11:29;;;;;;;5.25;3.88;;;;;;;41.73;22.35;98789.03;4823379;29;20192;-88
2023/08/24 10:14:07;;;;;;;8.07;4.15;;;;;;;41.83;23.02;98788.06;4827389;29;20197;-89
2023/08/24 10:16:36;;;;;;;6.43;4.07;;;;;;;41.96;22.49;98784.63;4843987;29;20192;-87
2023/08/24 10:19:03;;;;;;;10.07;4.03;;;;;;;42.15;22.72;98783.63;4827026;29;20220;-87
2023/08/24 10:21:29;;;;;;;6.18;3.78;;;;;;;42.34;21.62;98782.84;4826535;29;20288;-87
2023/08/24 10:23:58;;;;;;;6.63;3.90;;;;;;;42.07;21.81;98786.16;4827267;29;20204;-87
2023/08/24 10:26:25;;;;;;;5.25;3.67;;;;;;;41.99;22.51;98789.56;4842860;29;20189;-87
2023/08/24 10:28:52;;;;;;;6.45;3.55;;;;;;;42.11;21.84;98774.28;4827003;29;20213;-87
2023/08/24 10:31:20;;;;;;;6.05;4.18;;;;;;;42.00;21.84;98774.69;4826842;29;20193;-87
2023/08/24 10:33:47;;;;;;;7.85;3.47;;;;;;;41.63;21.92;98773.41;4842893;29;20193;-88
2023/08/24 10:36:14;;;;;;;5.88;3.60;;;;;;;41.61;22.38;98761.88;4841085;29;20189;-88
2023/08/24 10:38:44;;;;;;;7.05;3.75;;;;;;;42.00;21.59;98763.66;4827817;29;20200;-87
2023/08/24 10:41:14;;;;;;;5.80;3.63;;;;;;;42.20;21.93;98753.25;4826967;29;20192;-87
2023/08/24 10:43:49;;;;;;;8.18;4.45;;;;;;;42.48;21.38;98756.97;4843010;29;20233;-88
2023/08/24 10:46:16;;;;;;;6.13;4.07;;;;;;;42.77;20.92;98760.44;4842207;29;20643;-88
2023/08/24 10:48:45;;;;;;;4.88;3.65;;;;;;;42.89;21.16;98746.22;4842202;29;20189;-87
2023/08/24 10:51:17;;;;;;;6.15;3.88;;;;;;;42.80;20.87;98735.03;4841052;29;20201;-88
2023/08/24 10:53:53;;;;;;;6.30;4.20;;;;;;;42.58;22.07;98737.59;4842512;29;20189;-88
2023/08/24 10:56:21;;;;;;;6.43;4.00;;;;;;;42.73;21.35;98731.84;4842100;29;20184;-88
2023/08/24 10:59:17;;;;;;;5.68;3.95;;;;;;;42.89;21.62;98724.16;4842079;29;20181;-86
2023/08/24 11:01:55;;;;;;;5.72;4.25;;;;;;;42.71;21.47;98716.72;4826067;29;20185;-87
2023/08/24 11:04:23;;;;;;;7.90;3.92;;;;;;;42.64;21.58;98714.34;4826608;29;20275;-89
2023/08/24 11:07:01;;;;;;;6.90;4.25;;;;;;;42.87;21.48;98711.78;4826977;29;20542;-88
2023/08/24 11:09:45;;;;;;;7.05;4.07;;;;;;;43.05;21.18;98708.19;4826394;29;20264;-88
2023/08/24 11:12:11;;;;;;;6.35;4.20;;;;;;;43.11;20.84;98701.47;4826934;29;20201;-88
2023/08/24 11:14:50;;;;;;;6.47;3.65;;;;;;;43.30;20.82;98704.97;4826935;29;20226;-87
2023/08/24 11:17:22;;;;;;;7.15;3.88;;;;;;;43.19;20.87;98701.59;4843161;29;20165;-87
2023/08/24 11:19:50;;;;;;;5.63;3.90;;;;;;;43.29;20.85;98697.84;4826345;29;20724;-89
2023/08/24 11:22:17;;;;;;;6.70;3.92;;;;;;;43.33;21.59;98690.59;4842519;29;20181;-87
2023/08/24 11:24:44;;;;;;;6.53;3.80;;;;;;;43.16;20.83;98691.19;4842532;29;20192;-87
2023/08/24 11:27:11;;;;;;;5.30;3.92;;;;;;;43.27;21.60;98683.50;4827050;29;20193;-88
2023/08/24 11:29:37;;;;;;;8.32;4.43;;;;;;;43.02;21.25;98678.44;4826701;29;20185;-88
2023/08/24 11:32:04;;;;;;;5.57;4.00;;;;;;;42.84;20.79;98683.69;4842986;29;20611;-88
2023/08/24 11:34:31;;;;;;;7.53;3.70;;;;;;;43.08;21.37;98675.31;4826689;29;20256;-87